sensor_id;sensor_type;location;lat;lon;timestamp;P1;durP1;ratioP1;P2;durP2;ratioP2
52342;SDS011;38277;51.972;4.624;2022-12-29T00:00:14;4.6;;;1.9;;
52342;SDS011;38277;51.972;4.624;2022-12-29T00:06:15;4.4;;;1.7;;
52342;SDS011;38277;51.972;4.624;2022-12-29T00:13:56;1.3;;;1.2;;
52342;SDS011;38277;51.972;4.624;2022-12-29T00:19:58;6.0;;;1.3;;
52342;SDS011;38277;51.972;4.624;2022-12-29T00:27:24;2.9;;;1.4;;
52342;SDS011;38277;51.972;4.624;2022-12-29T00:40:35;4.2;;;1.5;;
52342;SDS011;38277;51.972;4.624;2022-12-29T00:46:38;3.8;;;1.5;;
52342;SDS011;38277;51.972;4.624;2022-12-29T00:52:40;3.1;;;1.6;;
52342;SDS011;38277;51.972;4.624;2022-12-29T01:07:50;2.4;;;1.2;;
52342;SDS011;38277;51.972;4.624;2022-12-29T01:12:23;2.8;;;1.8;;
52342;SDS011;38277;51.972;4.624;2022-12-29T01:18:26;3.4;;;1.4;;
52342;SDS011;38277;51.972;4.624;2022-12-29T01:31:58;2.8;;;1.4;;
52342;SDS011;38277;51.972;4.624;2022-12-29T01:39:12;6.1;;;1.8;;
52342;SDS011;38277;51.972;4.624;2022-12-29T01:45:15;3.2;;;1.6;;
52342;SDS011;38277;51.972;4.624;2022-12-29T01:53:15;3.8;;;1.5;;
52342;SDS011;38277;51.972;4.624;2022-12-29T01:59:05;5.6;;;1.6;;
52342;SDS011;38277;51.972;4.624;2022-12-29T02:06:38;3.7;;;1.6;;
52342;SDS011;38277;51.972;4.624;2022-12-29T02:12:34;7.4;;;1.8;;
52342;SDS011;38277;51.972;4.624;2022-12-29T02:22:01;7.7;;;2.0;;
52342;SDS011;38277;51.972;4.624;2022-12-29T02:30:05;11.0;;;2.0;;
52342;SDS011;38277;51.972;4.624;2022-12-29T02:39:20;9.1;;;1.9;;
52342;SDS011;38277;51.972;4.624;2022-12-29T02:42:10;4.5;;;2.0;;
52342;SDS011;38277;51.972;4.624;2022-12-29T02:48:20;8.0;;;2.0;;
52342;SDS011;38277;51.972;4.624;2022-12-29T02:52:54;7.0;;;1.8;;
52342;SDS011;38277;51.972;4.624;2022-12-29T03:00:13;10.0;;;3.1;;
52342;SDS011;38277;51.972;4.624;2022-12-29T03:07:34;9.5;;;2.5;;
52342;SDS011;38277;51.972;4.624;2022-12-29T03:14:27;4.7;;;1.9;;
52342;SDS011;38277;51.972;4.624;2022-12-29T03:20:06;8.6;;;2.0;;
52342;SDS011;38277;51.972;4.624;2022-12-29T03:23:02;10.8;;;2.4;;
52342;SDS011;38277;51.972;4.624;2022-12-29T03:29:04;7.1;;;2.1;;
52342;SDS011;38277;51.972;4.624;2022-12-29T03:36:28;10.3;;;2.1;;
52342;SDS011;38277;51.972;4.624;2022-12-29T03:45:24;6.1;;;1.8;;
52342;SDS011;38277;51.972;4.624;2022-12-29T03:49:56;9.9;;;2.0;;
52342;SDS011;38277;51.972;4.624;2022-12-29T03:55:57;9.1;;;1.7;;
52342;SDS011;38277;51.972;4.624;2022-12-29T04:06:13;11.7;;;2.3;;
52342;SDS011;38277;51.972;4.624;2022-12-29T04:12:14;10.4;;;2.9;;
52342;SDS011;38277;51.972;4.624;2022-12-29T04:16:57;13.2;;;3.0;;
52342;SDS011;38277;51.972;4.624;2022-12-29T04:26:01;14.6;;;2.7;;
52342;SDS011;38277;51.972;4.624;2022-12-29T04:30:13;14.9;;;3.2;;
52342;SDS011;38277;51.972;4.624;2022-12-29T04:39:11;13.1;;;3.0;;
52342;SDS011;38277;51.972;4.624;2022-12-29T04:43:45;14.0;;;2.8;;
52342;SDS011;38277;51.972;4.624;2022-12-29T04:48:42;12.0;;;3.0;;
52342;SDS011;38277;51.972;4.624;2022-12-29T04:52:51;19.2;;;3.8;;
52342;SDS011;38277;51.972;4.624;2022-12-29T05:02:01;17.4;;;4.5;;
52342;SDS011;38277;51.972;4.624;2022-12-29T05:19:49;11.2;;;3.5;;
52342;SDS011;38277;51.972;4.624;2022-12-29T05:28:56;18.8;;;4.6;;
52342;SDS011;38277;51.972;4.624;2022-12-29T05:37:43;18.8;;;4.3;;
52342;SDS011;38277;51.972;4.624;2022-12-29T05:46:59;16.9;;;4.1;;
52342;SDS011;38277;51.972;4.624;2022-12-29T05:51:55;17.4;;;4.2;;
52342;SDS011;38277;51.972;4.624;2022-12-29T06:00:58;22.2;;;3.8;;
52342;SDS011;38277;51.972;4.624;2022-12-29T06:10:01;17.6;;;3.7;;
52342;SDS011;38277;51.972;4.624;2022-12-29T06:19:05;21.3;;;5.3;;
52342;SDS011;38277;51.972;4.624;2022-12-29T06:28:08;23.5;;;4.8;;
52342;SDS011;38277;51.972;4.624;2022-12-29T06:37:11;22.5;;;5.8;;
52342;SDS011;38277;51.972;4.624;2022-12-29T06:49:15;13.2;;;3.4;;
52342;SDS011;38277;51.972;4.624;2022-12-29T06:58:18;10.7;;;2.9;;
52342;SDS011;38277;51.972;4.624;2022-12-29T07:04:20;17.6;;;4.0;;
52342;SDS011;38277;51.972;4.624;2022-12-29T07:22:27;14.9;;;3.6;;
52342;SDS011;38277;51.972;4.624;2022-12-29T07:31:30;16.7;;;4.1;;
52342;SDS011;38277;51.972;4.624;2022-12-29T07:40:32;18.6;;;3.9;;
52342;SDS011;38277;51.972;4.624;2022-12-29T07:49:36;17.1;;;4.0;;
52342;SDS011;38277;51.972;4.624;2022-12-29T07:58:39;23.8;;;6.0;;
52342;SDS011;38277;51.972;4.624;2022-12-29T08:10:43;23.3;;;5.0;;
52342;SDS011;38277;51.972;4.624;2022-12-29T08:16:45;20.0;;;4.2;;
52342;SDS011;38277;51.972;4.624;2022-12-29T08:25:56;19.5;;;4.2;;
52342;SDS011;38277;51.972;4.624;2022-12-29T08:34:52;21.8;;;4.5;;
52342;SDS011;38277;51.972;4.624;2022-12-29T08:49:57;18.8;;;4.5;;
52342;SDS011;38277;51.972;4.624;2022-12-29T08:52:57;21.2;;;4.2;;
52342;SDS011;38277;51.972;4.624;2022-12-29T08:59:00;23.5;;;4.3;;
52342;SDS011;38277;51.972;4.624;2022-12-29T09:02:01;17.0;;;4.1;;
52342;SDS011;38277;51.972;4.624;2022-12-29T09:09:16;18.1;;;4.1;;
52342;SDS011;38277;51.972;4.624;2022-12-29T09:25:48;21.3;;;4.9;;
52342;SDS011;38277;51.972;4.624;2022-12-29T09:39:14;15.3;;;4.1;;
52342;SDS011;38277;51.972;4.624;2022-12-29T09:42:22;16.5;;;3.2;;
52342;SDS011;38277;51.972;4.624;2022-12-29T09:53:05;13.1;;;2.8;;
52342;SDS011;38277;51.972;4.624;2022-12-29T09:56:01;19.0;;;5.0;;
52342;SDS011;38277;51.972;4.624;2022-12-29T10:06:21;17.9;;;4.1;;
52342;SDS011;38277;51.972;4.624;2022-12-29T10:09:32;18.7;;;4.1;;
52342;SDS011;38277;51.972;4.624;2022-12-29T10:21:07;18.4;;;4.9;;
52342;SDS011;38277;51.972;4.624;2022-12-29T10:23:51;19.0;;;5.8;;
52342;SDS011;38277;51.972;4.624;2022-12-29T10:30:34;24.0;;;5.3;;
52342;SDS011;38277;51.972;4.624;2022-12-29T10:36:38;31.8;;;7.9;;
52342;SDS011;38277;51.972;4.624;2022-12-29T10:45:40;28.1;;;6.3;;
52342;SDS011;38277;51.972;4.624;2022-12-29T11:00:48;26.0;;;5.4;;
52342;SDS011;38277;51.972;4.624;2022-12-29T11:06:47;33.7;;;7.9;;
52342;SDS011;38277;51.972;4.624;2022-12-29T11:12:57;35.6;;;8.3;;
52342;SDS011;38277;51.972;4.624;2022-12-29T11:21:52;31.5;;;9.3;;
52342;SDS011;38277;51.972;4.624;2022-12-29T11:33:56;26.3;;;6.3;;
52342;SDS011;38277;51.972;4.624;2022-12-29T11:43:00;29.4;;;6.3;;
52342;SDS011;38277;51.972;4.624;2022-12-29T11:49:02;28.7;;;8.8;;
52342;SDS011;38277;51.972;4.624;2022-12-29T11:55:16;28.1;;;7.3;;
52342;SDS011;38277;51.972;4.624;2022-12-29T11:58:04;25.5;;;5.5;;
52342;SDS011;38277;51.972;4.624;2022-12-29T12:07:37;22.4;;;5.0;;
52342;SDS011;38277;51.972;4.624;2022-12-29T12:10:42;25.5;;;4.9;;
52342;SDS011;38277;51.972;4.624;2022-12-29T12:19:43;25.8;;;6.1;;
52342;SDS011;38277;51.972;4.624;2022-12-29T12:26:09;24.9;;;5.7;;
52342;SDS011;38277;51.972;4.624;2022-12-29T12:32:06;25.4;;;5.0;;
52342;SDS011;38277;51.972;4.624;2022-12-29T12:37:06;22.7;;;4.7;;
52342;SDS011;38277;51.972;4.624;2022-12-29T12:47:10;19.2;;;5.8;;
52342;SDS011;38277;51.972;4.624;2022-12-29T12:52:44;24.2;;;4.7;;
52342;SDS011;38277;51.972;4.624;2022-12-29T13:06:18;21.0;;;5.8;;
52342;SDS011;38277;51.972;4.624;2022-12-29T13:16:47;23.4;;;4.8;;
52342;SDS011;38277;51.972;4.624;2022-12-29T13:19:53;20.4;;;4.8;;
52342;SDS011;38277;51.972;4.624;2022-12-29T13:26:14;20.9;;;5.6;;
52342;SDS011;38277;51.972;4.624;2022-12-29T13:31:04;17.5;;;4.0;;
52342;SDS011;38277;51.972;4.624;2022-12-29T13:48:21;11.9;;;3.6;;
52342;SDS011;38277;51.972;4.624;2022-12-29T13:53:52;6.7;;;2.2;;
52342;SDS011;38277;51.972;4.624;2022-12-29T14:08:17;8.0;;;2.3;;
52342;SDS011;38277;51.972;4.624;2022-12-29T14:14:19;10.0;;;2.8;;
52342;SDS011;38277;51.972;4.624;2022-12-29T14:20:20;11.7;;;3.1;;
52342;SDS011;38277;51.972;4.624;2022-12-29T14:29:48;14.0;;;3.3;;
52342;SDS011;38277;51.972;4.624;2022-12-29T14:41:33;15.1;;;3.5;;
52342;SDS011;38277;51.972;4.624;2022-12-29T14:50:36;11.9;;;3.1;;
52342;SDS011;38277;51.972;4.624;2022-12-29T15:05:36;11.3;;;2.6;;
52342;SDS011;38277;51.972;4.624;2022-12-29T15:14:35;10.4;;;3.2;;
52342;SDS011;38277;51.972;4.624;2022-12-29T15:23:34;11.4;;;2.9;;
52342;SDS011;38277;51.972;4.624;2022-12-29T15:32:44;15.7;;;3.9;;
52342;SDS011;38277;51.972;4.624;2022-12-29T15:41:56;17.7;;;3.5;;
52342;SDS011;38277;51.972;4.624;2022-12-29T15:50:44;16.9;;;3.5;;
52342;SDS011;38277;51.972;4.624;2022-12-29T16:02:48;13.0;;;3.4;;
52342;SDS011;38277;51.972;4.624;2022-12-29T16:08:56;12.9;;;3.1;;
52342;SDS011;38277;51.972;4.624;2022-12-29T16:17:54;15.1;;;2.9;;
52342;SDS011;38277;51.972;4.624;2022-12-29T16:29:57;11.0;;;2.7;;
52342;SDS011;38277;51.972;4.624;2022-12-29T16:35:59;14.6;;;3.9;;
52342;SDS011;38277;51.972;4.624;2022-12-29T16:45:07;20.8;;;4.7;;
52342;SDS011;38277;51.972;4.624;2022-12-29T17:03:09;14.4;;;3.4;;
52342;SDS011;38277;51.972;4.624;2022-12-29T17:15:14;16.5;;;3.7;;
52342;SDS011;38277;51.972;4.624;2022-12-29T17:21:16;14.5;;;2.8;;
52342;SDS011;38277;51.972;4.624;2022-12-29T17:30:19;12.0;;;3.1;;
52342;SDS011;38277;51.972;4.624;2022-12-29T17:39:21;13.0;;;3.8;;
52342;SDS011;38277;51.972;4.624;2022-12-29T18:06:30;12.9;;;3.8;;
52342;SDS011;38277;51.972;4.624;2022-12-29T18:15:35;20.1;;;5.1;;
52342;SDS011;38277;51.972;4.624;2022-12-29T18:27:38;20.3;;;4.2;;
52342;SDS011;38277;51.972;4.624;2022-12-29T18:39:42;22.4;;;5.0;;
52342;SDS011;38277;51.972;4.624;2022-12-29T18:42:43;24.4;;;6.5;;
52342;SDS011;38277;51.972;4.624;2022-12-29T18:51:46;25.4;;;5.3;;
52342;SDS011;38277;51.972;4.624;2022-12-29T19:03:51;21.4;;;5.3;;
52342;SDS011;38277;51.972;4.624;2022-12-29T19:09:52;24.2;;;6.0;;
52342;SDS011;38277;51.972;4.624;2022-12-29T19:18:56;19.3;;;5.0;;
52342;SDS011;38277;51.972;4.624;2022-12-29T19:34:01;24.6;;;6.8;;
52342;SDS011;38277;51.972;4.624;2022-12-29T19:43:04;22.4;;;5.2;;
52342;SDS011;38277;51.972;4.624;2022-12-29T19:46:06;19.6;;;5.3;;
52342;SDS011;38277;51.972;4.624;2022-12-29T19:58:10;28.3;;;6.1;;
52342;SDS011;38277;51.972;4.624;2022-12-29T20:04:11;28.8;;;6.2;;
52342;SDS011;38277;51.972;4.624;2022-12-29T20:22:17;27.1;;;5.8;;
52342;SDS011;38277;51.972;4.624;2022-12-29T20:31:22;25.4;;;6.2;;
52342;SDS011;38277;51.972;4.624;2022-12-29T20:46:26;21.9;;;5.0;;
52342;SDS011;38277;51.972;4.624;2022-12-29T20:52:28;19.8;;;5.5;;
52342;SDS011;38277;51.972;4.624;2022-12-29T20:58:30;23.9;;;5.3;;
52342;SDS011;38277;51.972;4.624;2022-12-29T21:12:05;21.5;;;5.4;;
52342;SDS011;38277;51.972;4.624;2022-12-29T21:18:07;24.4;;;5.8;;
52342;SDS011;38277;51.972;4.624;2022-12-29T21:23:04;20.3;;;4.7;;
52342;SDS011;38277;51.972;4.624;2022-12-29T21:32:07;22.6;;;6.0;;
52342;SDS011;38277;51.972;4.624;2022-12-29T21:36:04;21.2;;;4.4;;
52342;SDS011;38277;51.972;4.624;2022-12-29T21:42:06;19.8;;;5.4;;
52342;SDS011;38277;51.972;4.624;2022-12-29T21:49:43;16.9;;;4.7;;
52342;SDS011;38277;51.972;4.624;2022-12-29T21:55:44;23.3;;;5.5;;
52342;SDS011;38277;51.972;4.624;2022-12-29T22:07:51;21.0;;;4.7;;
52342;SDS011;38277;51.972;4.624;2022-12-29T22:21:05;24.2;;;5.4;;
52342;SDS011;38277;51.972;4.624;2022-12-29T22:33:08;19.9;;;4.0;;
52342;SDS011;38277;51.972;4.624;2022-12-29T22:58:51;23.4;;;5.0;;
52342;SDS011;38277;51.972;4.624;2022-12-29T23:04:53;20.2;;;5.3;;
52342;SDS011;38277;51.972;4.624;2022-12-29T23:10:56;17.0;;;3.4;;
52342;SDS011;38277;51.972;4.624;2022-12-29T23:21:54;18.4;;;5.3;;
52342;SDS011;38277;51.972;4.624;2022-12-29T23:24:55;23.5;;;5.6;;
52342;SDS011;38277;51.972;4.624;2022-12-29T23:33:59;24.8;;;7.9;;
52342;SDS011;38277;51.972;4.624;2022-12-29T23:46:04;16.0;;;4.0;;
52342;SDS011;38277;51.972;4.624;2022-12-29T23:52:05;18.5;;;5.1;;
